Time;durP1;ratioP1;P1;durP2;ratioP2;P2;SDS_P1;SDS_P2;PMS_P1;PMS_P2;Temp;Humidity;BMP_temperature;BMP_pressure;BME280_temperature;BME280_humidity;BME280_pressure;Samples;Min_cycle;Max_cycle;Signal;HPM_P1;HPM_P2
2022/07/31 00:02:13;;;;;;;21.67;15.75;;;;;;;;;;4933937;29;20031;-75
2022/07/31 00:04:38;;;;;;;24.95;15.52;;;;;;;;;;4933675;29;20469;-75
2022/07/31 00:07:04;;;;;;;19.15;15.57;;;;;;;;;;4933772;29;20066;-75
2022/07/31 00:09:29;;;;;;;25.50;16.38;;;;;;;;;;4932183;29;20452;-75
2022/07/31 00:11:55;;;;;;;23.52;16.55;;;;;;;;;;4932453;29;20556;-76
2022/07/31 00:14:20;;;;;;;21.08;15.48;;;;;;;;;;4933879;29;20481;-75
2022/07/31 00:16:46;;;;;;;19.90;16.35;;;;;;;;;;4932188;29;20077;-75
2022/07/31 00:19:12;;;;;;;21.35;16.73;;;;;;;;;;4933526;29;20082;-76
2022/07/31 00:21:38;;;;;;;21.95;16.55;;;;;;;;;;4933001;29;20032;-75
2022/07/31 00:24:04;;;;;;;21.50;16.67;;;;;;;;;;4945040;29;20035;-75
2022/07/31 00:26:29;;;;;;;25.20;16.48;;;;;;;;;;4952353;29;20436;-76
2022/07/31 00:28:55;;;;;;;25.27;17.42;;;;;;;;;;4950996;28;20060;-76
2022/07/31 00:31:20;;;;;;;19.48;16.30;;;;;;;;;;4967071;28;20487;-75
2022/07/31 00:33:46;;;;;;;26.02;17.73;;;;;;;;;;4950956;29;20043;-75
2022/07/31 00:36:12;;;;;;;25.42;16.73;;;;;;;;;;4951075;29;20039;-75
2022/07/31 00:38:38;;;;;;;25.55;18.02;;;;;;;;;;4952529;28;20038;-76
2022/07/31 00:41:04;;;;;;;26.30;16.10;;;;;;;;;;4952188;29;20038;-75
2022/07/31 00:43:29;;;;;;;22.38;16.63;;;;;;;;;;4950787;29;20130;-75
2022/07/31 00:45:56;;;;;;;21.95;17.25;;;;;;;;;;4950953;29;20034;-76
2022/07/31 00:48:23;;;;;;;27.50;16.25;;;;;;;;;;4952181;28;20042;-75
2022/07/31 00:50:49;;;;;;;24.15;16.85;;;;;;;;;;4951050;29;20070;-74
2022/07/31 00:53:15;;;;;;;19.08;16.05;;;;;;;;;;4952457;28;20070;-76
2022/07/31 00:55:40;;;;;;;21.80;16.27;;;;;;;;;;4950685;29;20392;-75
2022/07/31 00:58:06;;;;;;;20.25;16.27;;;;;;;;;;4950781;29;20031;-75
2022/07/31 01:00:31;;;;;;;21.08;15.57;;;;;;;;;;4952084;29;20038;-75
2022/07/31 01:02:57;;;;;;;20.95;16.42;;;;;;;;;;4951834;29;20086;-75
2022/07/31 01:05:22;;;;;;;25.17;16.52;;;;;;;;;;4950414;29;20041;-75
2022/07/31 01:07:48;;;;;;;20.52;15.73;;;;;;;;;;4952102;29;20066;-76
2022/07/31 01:10:24;;;;;;;20.52;15.63;;;;;;;;;;4950899;29;20047;-75
2022/07/31 01:13:00;;;;;;;19.10;14.73;;;;;;;;;;4967921;28;20368;-75
2022/07/31 01:15:27;;;;;;;21.17;15.63;;;;;;;;;;4951626;28;20090;-76
2022/07/31 01:17:55;;;;;;;20.13;15.00;;;;;;;;;;4966932;28;20472;-74
2022/07/31 01:20:20;;;;;;;39.45;23.80;;;;;;;;;;4952413;28;20027;-75
2022/07/31 01:23:30;;;;;;;24.85;16.48;;;;;;;;;;4950935;29;20438;-75
2022/07/31 01:26:26;;;;;;;22.02;15.80;;;;;;;;;;4931894;29;20040;-74
2022/07/31 01:29:13;;;;;;;22.40;16.17;;;;;;;;;;4931446;29;20031;-74
2022/07/31 01:31:55;;;;;;;22.17;16.92;;;;;;;;;;4932879;29;20039;-75
2022/07/31 01:34:41;;;;;;;20.17;16.38;;;;;;;;;;4933151;29;20028;-75
2022/07/31 01:37:16;;;;;;;23.45;16.80;;;;;;;;;;4931792;29;20036;-75
2022/07/31 01:39:45;;;;;;;22.02;16.67;;;;;;;;;;4931346;29;20031;-74
2022/07/31 01:42:15;;;;;;;23.42;18.38;;;;;;;;;;4934626;29;20252;-76
2022/07/31 01:44:46;;;;;;;26.05;17.08;;;;;;;;;;4936082;29;20039;-76
2022/07/31 01:47:18;;;;;;;28.13;18.02;;;;;;;;;;4935251;29;20024;-76
2022/07/31 01:49:44;;;;;;;27.80;18.00;;;;;;;;;;4934996;29;20107;-77
2022/07/31 01:52:11;;;;;;;23.70;17.48;;;;;;;;;;4935299;29;20028;-77
2022/07/31 01:54:38;;;;;;;20.20;17.13;;;;;;;;;;4934747;29;20063;-76
2022/07/31 01:57:05;;;;;;;22.15;16.70;;;;;;;;;;4936518;29;20066;-76
2022/07/31 01:59:34;;;;;;;23.63;17.17;;;;;;;;;;4936559;29;20031;-76
2022/07/31 02:02:02;;;;;;;24.02;17.45;;;;;;;;;;4936092;29;20502;-76
2022/07/31 02:04:28;;;;;;;20.55;16.25;;;;;;;;;;4934821;29;20031;-77
2022/07/31 02:06:54;;;;;;;21.85;16.05;;;;;;;;;;4935906;29;20026;-76
2022/07/31 02:09:22;;;;;;;27.90;15.80;;;;;;;;;;4934881;29;20131;-76
2022/07/31 02:11:48;;;;;;;21.05;16.63;;;;;;;;;;4940511;29;20012;-76
2022/07/31 02:14:16;;;;;;;21.35;16.05;;;;;;;;;;4954208;29;20023;-76
2022/07/31 02:16:43;;;;;;;20.58;16.17;;;;;;;;;;4952086;29;20027;-76
2022/07/31 02:19:10;;;;;;;21.20;17.63;;;;;;;;;;4949648;29;20031;-77
2022/07/31 02:21:36;;;;;;;21.33;16.08;;;;;;;;;;4952316;29;20027;-76
2022/07/31 02:24:02;;;;;;;21.98;15.95;;;;;;;;;;4955632;29;20039;-76
2022/07/31 02:26:29;;;;;;;22.33;16.73;;;;;;;;;;4956609;28;20031;-76
2022/07/31 02:28:55;;;;;;;25.05;16.63;;;;;;;;;;4953710;29;20027;-77
2022/07/31 02:31:22;;;;;;;21.55;15.90;;;;;;;;;;4953885;29;20034;-76
2022/07/31 02:33:49;;;;;;;26.75;16.33;;;;;;;;;;4954535;29;20027;-77
2022/07/31 02:36:19;;;;;;;24.42;16.77;;;;;;;;;;4954875;29;20134;-77
2022/07/31 02:38:45;;;;;;;25.52;16.10;;;;;;;;;;4953617;29;20027;-77
2022/07/31 02:41:13;;;;;;;23.23;16.85;;;;;;;;;;4954702;29;20031;-77
2022/07/31 02:43:39;;;;;;;23.27;15.80;;;;;;;;;;4953512;29;20035;-76
2022/07/31 02:46:06;;;;;;;21.05;16.20;;;;;;;;;;4954738;28;20380;-77
2022/07/31 02:48:32;;;;;;;19.67;16.77;;;;;;;;;;4953372;29;20075;-77
2022/07/31 02:50:58;;;;;;;20.60;16.15;;;;;;;;;;4952747;29;20483;-77
2022/07/31 02:53:24;;;;;;;28.55;18.00;;;;;;;;;;4953582;28;20034;-77
2022/07/31 02:55:50;;;;;;;23.13;17.20;;;;;;;;;;4952845;28;20031;-77
2022/07/31 02:58:16;;;;;;;21.80;16.20;;;;;;;;;;4954397;28;20035;-76
2022/07/31 03:00:42;;;;;;;23.17;18.13;;;;;;;;;;4952771;29;20019;-76
2022/07/31 03:03:07;;;;;;;19.27;15.68;;;;;;;;;;4952948;29;20037;-76
2022/07/31 03:05:33;;;;;;;22.95;16.27;;;;;;;;;;4952792;29;20122;-76
2022/07/31 03:07:58;;;;;;;25.60;17.35;;;;;;;;;;4952534;29;20118;-76
2022/07/31 03:10:24;;;;;;;26.85;16.23;;;;;;;;;;4952900;29;20051;-77
2022/07/31 03:12:52;;;;;;;20.58;16.75;;;;;;;;;;4954016;29;20567;-77
2022/07/31 03:15:20;;;;;;;23.02;17.05;;;;;;;;;;4952616;29;20027;-77
2022/07/31 03:17:48;;;;;;;22.08;17.35;;;;;;;;;;4968565;28;20031;-76
2022/07/31 03:20:14;;;;;;;22.92;15.18;;;;;;;;;;4953975;28;20070;-76
2022/07/31 03:22:41;;;;;;;22.65;15.10;;;;;;;;;;4967813;28;20042;-75
2022/07/31 03:25:07;;;;;;;20.00;14.30;;;;;;;;;;4934690;29;20039;-76
2022/07/31 03:27:33;;;;;;;23.80;15.55;;;;;;;;;;4934803;29;20071;-76
2022/07/31 03:30:00;;;;;;;19.90;15.02;;;;;;;;;;4933203;29;20031;-76
2022/07/31 03:32:25;;;;;;;19.70;15.20;;;;;;;;;;4933616;29;20137;-75
2022/07/31 03:34:51;;;;;;;19.42;15.15;;;;;;;;;;4933888;29;20527;-76
2022/07/31 03:37:16;;;;;;;21.40;14.48;;;;;;;;;;4933514;29;20363;-76
2022/07/31 03:39:42;;;;;;;22.08;14.25;;;;;;;;;;4933284;29;20024;-76
2022/07/31 03:42:08;;;;;;;20.92;14.77;;;;;;;;;;4936406;29;20055;-76
2022/07/31 03:44:35;;;;;;;20.92;14.90;;;;;;;;;;4936916;29;20112;-75
2022/07/31 03:47:01;;;;;;;19.38;14.35;;;;;;;;;;4934580;29;20035;-76
2022/07/31 03:49:27;;;;;;;20.38;13.82;;;;;;;;;;4934188;29;20066;-76
2022/07/31 03:51:53;;;;;;;23.58;15.43;;;;;;;;;;4934337;29;20039;-75
2022/07/31 03:54:19;;;;;;;21.42;14.40;;;;;;;;;;4933097;29;20091;-75
2022/07/31 03:56:49;;;;;;;18.63;13.85;;;;;;;;;;4934339;29;20428;-75
2022/07/31 03:59:15;;;;;;;25.60;15.32;;;;;;;;;;4933033;29;20028;-76
2022/07/31 04:01:42;;;;;;;20.27;15.90;;;;;;;;;;4932634;29;20178;-76
2022/07/31 04:04:08;;;;;;;20.75;14.38;;;;;;;;;;4932314;29;20031;-76
2022/07/31 04:06:33;;;;;;;21.35;13.35;;;;;;;;;;4932969;29;20469;-76
2022/07/31 04:09:00;;;;;;;17.48;13.68;;;;;;;;;;4932212;29;20138;-76
2022/07/31 04:11:26;;;;;;;16.70;14.05;;;;;;;;;;4933037;29;20027;-75
2022/07/31 04:13:52;;;;;;;18.85;13.80;;;;;;;;;;4933644;29;20027;-76
2022/07/31 04:16:18;;;;;;;24.77;15.32;;;;;;;;;;4933944;29;20613;-75
2022/07/31 04:18:43;;;;;;;16.30;13.32;;;;;;;;;;4931925;29;20031;-75
2022/07/31 04:21:09;;;;;;;20.58;13.93;;;;;;;;;;4932192;29;20034;-77
2022/07/31 04:23:34;;;;;;;19.92;14.70;;;;;;;;;;4939918;29;20054;-75
2022/07/31 04:26:00;;;;;;;20.33;14.88;;;;;;;;;;4951352;29;20027;-76
2022/07/31 04:28:25;;;;;;;20.60;14.45;;;;;;;;;;4951524;29;20035;-76
2022/07/31 04:30:51;;;;;;;24.20;14.38;;;;;;;;;;4952562;28;20110;-76
2022/07/31 04:33:17;;;;;;;20.52;14.63;;;;;;;;;;4950990;29;20037;-76
2022/07/31 04:35:42;;;;;;;24.75;15.35;;;;;;;;;;4952310;28;20476;-76
2022/07/31 04:38:08;;;;;;;22.58;16.10;;;;;;;;;;4950953;29;20342;-77
2022/07/31 04:40:33;;;;;;;20.52;15.38;;;;;;;;;;4952299;29;20127;-77
2022/07/31 04:42:59;;;;;;;30.00;15.05;;;;;;;;;;4952306;29;20027;-77
2022/07/31 04:45:24;;;;;;;22.42;16.15;;;;;;;;;;4950900;29;20502;-77
2022/07/31 04:47:50;;;;;;;18.63;14.52;;;;;;;;;;4950719;29;20034;-76
2022/07/31 04:50:15;;;;;;;25.40;14.15;;;;;;;;;;4966899;28;20027;-76
2022/07/31 04:52:41;;;;;;;22.83;14.20;;;;;;;;;;4950845;29;20059;-76
2022/07/31 04:55:07;;;;;;;17.20;13.35;;;;;;;;;;4950595;29;20031;-76
2022/07/31 04:57:32;;;;;;;18.70;14.50;;;;;;;;;;4951035;29;20041;-76
2022/07/31 04:59:58;;;;;;;18.55;13.57;;;;;;;;;;4950597;29;20480;-76
2022/07/31 05:02:23;;;;;;;25.17;15.32;;;;;;;;;;4952138;29;20041;-76
2022/07/31 05:04:49;;;;;;;18.42;12.70;;;;;;;;;;4950531;29;20035;-76
2022/07/31 05:07:14;;;;;;;18.30;13.88;;;;;;;;;;4951028;29;20069;-76
2022/07/31 05:09:40;;;;;;;21.13;12.95;;;;;;;;;;4952105;29;20055;-77
2022/07/31 05:12:07;;;;;;;16.13;12.88;;;;;;;;;;4951800;29;20031;-78
2022/07/31 05:14:32;;;;;;;20.52;14.15;;;;;;;;;;4967063;28;20270;-78
2022/07/31 05:16:58;;;;;;;19.45;12.60;;;;;;;;;;4951765;28;20031;-77
2022/07/31 05:19:28;;;;;;;14.70;11.90;;;;;;;;;;4952657;29;20039;-77
2022/07/31 05:21:54;;;;;;;20.88;13.10;;;;;;;;;;4952471;28;20082;-77
2022/07/31 05:24:21;;;;;;;19.02;13.20;;;;;;;;;;4938683;28;20023;-77
2022/07/31 05:26:46;;;;;;;20.10;14.48;;;;;;;;;;4931667;29;20037;-77
2022/07/31 05:29:12;;;;;;;27.20;14.10;;;;;;;;;;4931822;29;20115;-77
2022/07/31 05:31:37;;;;;;;18.63;13.27;;;;;;;;;;4931761;29;20063;-77
2022/07/31 05:34:03;;;;;;;15.57;12.38;;;;;;;;;;4933179;29;20388;-77
2022/07/31 05:36:28;;;;;;;19.30;13.63;;;;;;;;;;4932941;29;20028;-77
2022/07/31 05:38:54;;;;;;;16.90;12.00;;;;;;;;;;4932923;29;20441;-76
2022/07/31 05:41:20;;;;;;;18.77;14.63;;;;;;;;;;4931975;29;20028;-76
2022/07/31 05:43:45;;;;;;;17.00;12.55;;;;;;;;;;4932661;29;20059;-77
2022/07/31 05:46:13;;;;;;;14.75;12.32;;;;;;;;;;4932690;29;20035;-78
2022/07/31 05:48:39;;;;;;;16.88;11.70;;;;;;;;;;4932859;29;20023;-77
2022/07/31 05:51:11;;;;;;;14.77;12.23;;;;;;;;;;4932785;29;20124;-77
2022/07/31 05:53:38;;;;;;;16.85;12.00;;;;;;;;;;4931746;29;20100;-78
2022/07/31 05:56:04;;;;;;;15.82;11.80;;;;;;;;;;4931615;29;20027;-75
2022/07/31 05:58:31;;;;;;;14.90;11.75;;;;;;;;;;4933739;29;20464;-77
2022/07/31 06:00:56;;;;;;;16.23;10.93;;;;;;;;;;4915549;29;20028;-77
2022/07/31 06:03:28;;;;;;;20.10;12.57;;;;;;;;;;4931417;29;20102;-77
2022/07/31 06:05:55;;;;;;;14.63;11.30;;;;;;;;;;4932620;29;20027;-77
2022/07/31 06:08:22;;;;;;;18.45;11.45;;;;;;;;;;4931275;29;20392;-76
2022/07/31 06:10:47;;;;;;;14.35;11.20;;;;;;;;;;4933071;29;20039;-77
2022/07/31 06:13:13;;;;;;;13.32;10.80;;;;;;;;;;4932517;29;20024;-77
2022/07/31 06:15:40;;;;;;;14.43;10.52;;;;;;;;;;4930969;29;20028;-77
2022/07/31 06:18:06;;;;;;;13.75;10.27;;;;;;;;;;4930876;29;20031;-77
2022/07/31 06:20:32;;;;;;;13.13;10.20;;;;;;;;;;4930804;29;20032;-78
2022/07/31 06:22:57;;;;;;;14.35;11.02;;;;;;;;;;4932335;29;20040;-76
2022/07/31 06:25:23;;;;;;;16.08;10.70;;;;;;;;;;4930809;29;20032;-76
2022/07/31 06:27:48;;;;;;;12.93;10.13;;;;;;;;;;4933368;29;20473;-76
2022/07/31 06:30:14;;;;;;;13.98;11.02;;;;;;;;;;4935908;29;20111;-76
2022/07/31 06:32:40;;;;;;;10.73;9.38;;;;;;;;;;4934248;29;20495;-76
2022/07/31 06:35:06;;;;;;;11.77;9.40;;;;;;;;;;4935769;29;20031;-77
2022/07/31 06:37:32;;;;;;;14.50;9.57;;;;;;;;;;4935887;29;20023;-78
2022/07/31 06:39:58;;;;;;;15.68;10.10;;;;;;;;;;4934329;29;20384;-76
2022/07/31 06:42:25;;;;;;;11.82;8.05;;;;;;;;;;4935843;29;20024;-76
2022/07/31 06:44:51;;;;;;;13.45;8.60;;;;;;;;;;4935275;29;20024;-77
2022/07/31 06:47:18;;;;;;;9.00;7.82;;;;;;;;;;4935355;29;20512;-76
2022/07/31 06:49:44;;;;;;;8.43;7.07;;;;;;;;;;4934268;29;20441;-76
2022/07/31 06:52:09;;;;;;;10.65;7.03;;;;;;;;;;4933914;29;20118;-76
2022/07/31 06:54:35;;;;;;;9.05;7.60;;;;;;;;;;4935843;29;20031;-77
2022/07/31 06:57:01;;;;;;;10.02;7.10;;;;;;;;;;4935105;29;20074;-78
2022/07/31 06:59:26;;;;;;;8.00;6.97;;;;;;;;;;4934459;29;20067;-77
2022/07/31 07:01:52;;;;;;;11.00;6.97;;;;;;;;;;4934013;29;20114;-77
2022/07/31 07:04:18;;;;;;;8.90;6.70;;;;;;;;;;4934534;29;20036;-77
2022/07/31 07:06:43;;;;;;;9.25;6.50;;;;;;;;;;4934167;29;20028;-77
2022/07/31 07:09:08;;;;;;;10.20;6.57;;;;;;;;;;4934375;29;20079;-76
2022/07/31 07:11:34;;;;;;;7.97;5.95;;;;;;;;;;4935471;29;20107;-78
2022/07/31 07:13:59;;;;;;;7.82;7.03;;;;;;;;;;4933956;29;20031;-77
2022/07/31 07:16:25;;;;;;;7.32;6.50;;;;;;;;;;4934108;29;20421;-77
2022/07/31 07:18:52;;;;;;;7.13;5.95;;;;;;;;;;4937030;29;20023;-77
2022/07/31 07:21:17;;;;;;;8.23;6.28;;;;;;;;;;4940345;29;20035;-76
2022/07/31 07:23:43;;;;;;;8.25;5.80;;;;;;;;;;4949983;29;20023;-77
2022/07/31 07:26:08;;;;;;;9.25;6.10;;;;;;;;;;4958991;28;20049;-76
2022/07/31 07:28:35;;;;;;;6.95;5.97;;;;;;;;;;4956440;28;20031;-78
2022/07/31 07:31:02;;;;;;;9.32;6.15;;;;;;;;;;4937781;29;20125;-78
2022/07/31 07:33:27;;;;;;;7.38;4.95;;;;;;;;;;4954169;29;20031;-77
2022/07/31 07:35:53;;;;;;;6.50;5.30;;;;;;;;;;4954509;29;20082;-77
2022/07/31 07:38:19;;;;;;;8.73;5.05;;;;;;;;;;4954297;28;20035;-76
2022/07/31 07:40:44;;;;;;;8.07;5.13;;;;;;;;;;4969349;28;20031;-77
2022/07/31 07:43:10;;;;;;;5.68;4.80;;;;;;;;;;4954245;29;20034;-77
2022/07/31 07:45:35;;;;;;;8.73;4.82;;;;;;;;;;4953051;29;20059;-78
2022/07/31 07:48:01;;;;;;;6.88;5.40;;;;;;;;;;4952878;29;20436;-78
2022/07/31 07:50:26;;;;;;;10.20;4.78;;;;;;;;;;4952230;29;20293;-77
2022/07/31 07:52:52;;;;;;;7.55;5.00;;;;;;;;;;4953000;28;20058;-77
2022/07/31 07:55:18;;;;;;;11.10;6.93;;;;;;;;;;4969254;28;20027;-78
2022/07/31 07:57:44;;;;;;;7.50;5.25;;;;;;;;;;4952363;29;20031;-78
2022/07/31 08:00:11;;;;;;;5.60;4.95;;;;;;;;;;4953981;28;20097;-77
2022/07/31 08:02:37;;;;;;;7.32;4.72;;;;;;;;;;4952318;29;20077;-78
2022/07/31 08:05:03;;;;;;;5.15;4.47;;;;;;;;;;4968266;28;20365;-78
2022/07/31 08:07:34;;;;;;;5.70;4.88;;;;;;;;;;4968996;28;20229;-78
2022/07/31 08:10:00;;;;;;;;;;;;;;;;;;4952560;29;20628;-76
2022/07/31 08:12:27;;;;;;;10.43;5.43;;;;;;;;;;4952777;29;19918;-78
2022/07/31 08:14:53;;;;;;;5.82;4.38;;;;;;;;;;4953828;29;20027;-77
2022/07/31 08:17:19;;;;;;;9.75;4.60;;;;;;;;;;4951650;29;20182;-77
2022/07/31 08:19:44;;;;;;;7.20;4.28;;;;;;;;;;4953418;29;20767;-77
2022/07/31 08:22:10;;;;;;;5.68;4.55;;;;;;;;;;4936111;29;20391;-78
2022/07/31 08:24:36;;;;;;;6.55;4.20;;;;;;;;;;4936813;29;20112;-77
2022/07/31 08:29:46;;;;;;;4.82;4.32;;;;;;;;;;4933918;29;20034;-77
2022/07/31 08:32:12;;;;;;;5.80;3.70;;;;;;;;;;4932263;29;20035;-77
2022/07/31 08:34:38;;;;;;;4.82;4.07;;;;;;;;;;4932316;29;20368;-78
2022/07/31 08:37:05;;;;;;;4.63;4.20;;;;;;;;;;4933864;29;20050;-76
2022/07/31 08:39:34;;;;;;;10.07;5.20;;;;;;;;;;4934241;29;20039;-76
2022/07/31 08:42:07;;;;;;;6.07;4.60;;;;;;;;;;4933434;29;20031;-77
2022/07/31 08:44:37;;;;;;;6.47;4.20;;;;;;;;;;4932314;29;20024;-77
2022/07/31 08:47:06;;;;;;;6.50;4.13;;;;;;;;;;4933392;29;20038;-77
2022/07/31 08:49:36;;;;;;;6.57;4.32;;;;;;;;;;4932254;29;20028;-77
2022/07/31 08:52:02;;;;;;;6.05;3.88;;;;;;;;;;4931402;29;20035;-77
2022/07/31 08:54:30;;;;;;;6.93;4.05;;;;;;;;;;4932127;29;20153;-77
2022/07/31 08:56:56;;;;;;;6.75;4.40;;;;;;;;;;4932405;29;20027;-78
2022/07/31 08:59:21;;;;;;;5.97;3.65;;;;;;;;;;4932198;29;20061;-78
2022/07/31 09:01:47;;;;;;;7.32;4.00;;;;;;;;;;4933743;29;20441;-78
2022/07/31 09:04:13;;;;;;;4.97;4.30;;;;;;;;;;4933333;29;20111;-76
2022/07/31 09:06:38;;;;;;;6.10;3.75;;;;;;;;;;4933743;29;20087;-77
2022/07/31 09:09:04;;;;;;;7.68;4.05;;;;;;;;;;4931585;29;20095;-77
2022/07/31 09:11:30;;;;;;;9.20;4.88;;;;;;;;;;4932304;29;20106;-77
2022/07/31 09:13:58;;;;;;;4.75;3.72;;;;;;;;;;4932139;29;20055;-77
2022/07/31 09:16:24;;;;;;;4.22;3.75;;;;;;;;;;4933453;29;20424;-77
2022/07/31 09:19:04;;;;;;;5.03;3.80;;;;;;;;;;4933565;29;20028;-77
2022/07/31 09:21:41;;;;;;;7.18;4.13;;;;;;;;;;4931857;29;20020;-78
2022/07/31 09:24:09;;;;;;;5.32;4.43;;;;;;;;;;4943769;29;20053;-77
2022/07/31 09:26:35;;;;;;;6.28;3.42;;;;;;;;;;4952246;28;20019;-77
2022/07/31 09:29:07;;;;;;;6.38;3.78;;;;;;;;;;4950792;29;20122;-78
2022/07/31 09:31:36;;;;;;;3.83;3.38;;;;;;;;;;4952835;28;20019;-78
2022/07/31 09:34:02;;;;;;;10.55;3.42;;;;;;;;;;4950955;29;20082;-78
2022/07/31 09:36:28;;;;;;;5.30;3.95;;;;;;;;;;4953021;28;20095;-78
2022/07/31 09:38:55;;;;;;;7.05;4.18;;;;;;;;;;4952685;29;20090;-76
2022/07/31 09:41:21;;;;;;;5.40;4.40;;;;;;;;;;4950779;29;20085;-77
2022/07/31 09:44:03;;;;;;;4.75;3.53;;;;;;;;;;4951924;29;20090;-76
2022/07/31 09:46:43;;;;;;;5.50;3.75;;;;;;;;;;4951811;29;20031;-75
2022/07/31 09:49:09;;;;;;;7.03;4.47;;;;;;;;;;4950154;29;20431;-76
2022/07/31 09:51:43;;;;;;;5.28;3.35;;;;;;;;;;4950578;29;20177;-76
2022/07/31 09:54:30;;;;;;;4.53;3.67;;;;;;;;;;4949692;29;20484;-77
2022/07/31 09:56:56;;;;;;;4.28;3.78;;;;;;;;;;4966295;28;20031;-76
2022/07/31 09:59:23;;;;;;;5.38;3.50;;;;;;;;;;4949823;29;20035;-76
2022/07/31 10:01:49;;;;;;;5.28;3.50;;;;;;;;;;4951610;28;20499;-76
2022/07/31 10:04:19;;;;;;;4.25;3.70;;;;;;;;;;4953589;29;20049;-77
2022/07/31 10:06:49;;;;;;;4.63;3.90;;;;;;;;;;4953999;28;20034;-76
2022/07/31 10:09:18;;;;;;;7.32;4.55;;;;;;;;;;4955066;28;20398;-76
2022/07/31 10:11:46;;;;;;;8.27;3.85;;;;;;;;;;4954033;29;20030;-76
2022/07/31 10:14:18;;;;;;;5.68;3.53;;;;;;;;;;4955137;28;20051;-76
2022/07/31 10:16:45;;;;;;;7.68;3.63;;;;;;;;;;4955145;28;20031;-75
2022/07/31 10:19:11;;;;;;;5.60;3.83;;;;;;;;;;4953748;29;20027;-77
2022/07/31 10:21:41;;;;;;;7.88;3.67;;;;;;;;;;4969831;28;20252;-76
2022/07/31 10:24:08;;;;;;;5.57;3.95;;;;;;;;;;4943253;28;20032;-76
2022/07/31 10:26:34;;;;;;;4.88;3.53;;;;;;;;;;4936160;29;20039;-76
2022/07/31 10:29:00;;;;;;;5.05;3.47;;;;;;;;;;4936128;29;20035;-76
2022/07/31 10:31:26;;;;;;;6.85;4.28;;;;;;;;;;4935773;29;20031;-76
2022/07/31 10:33:54;;;;;;;4.05;3.53;;;;;;;;;;4934947;29;20473;-76
2022/07/31 10:36:27;;;;;;;7.47;3.63;;;;;;;;;;4936172;29;20107;-77
2022/07/31 10:39:08;;;;;;;6.57;3.75;;;;;;;;;;4934405;29;20032;-77
2022/07/31 10:42:08;;;;;;;3.97;3.60;;;;;;;;;;4934301;29;20038;-76
2022/07/31 10:44:44;;;;;;;5.38;4.07;;;;;;;;;;4934169;29;20165;-76
2022/07/31 10:47:14;;;;;;;6.90;4.10;;;;;;;;;;4934759;29;20412;-76
2022/07/31 10:49:48;;;;;;;4.75;3.63;;;;;;;;;;4934677;29;20028;-76
2022/07/31 10:52:31;;;;;;;3.67;3.30;;;;;;;;;;4934211;29;20547;-76
2022/07/31 10:54:59;;;;;;;10.18;3.83;;;;;;;;;;4935891;29;20099;-76
2022/07/31 10:57:27;;;;;;;5.28;3.80;;;;;;;;;;4933858;29;20123;-76
2022/07/31 10:59:53;;;;;;;6.45;3.88;;;;;;;;;;4934074;29;20038;-76
2022/07/31 11:02:33;;;;;;;6.35;3.85;;;;;;;;;;4933596;29;20114;-76
2022/07/31 11:05:12;;;;;;;7.07;4.05;;;;;;;;;;4933682;29;20055;-76
2022/07/31 11:07:41;;;;;;;5.50;4.07;;;;;;;;;;4934256;29;20067;-75
2022/07/31 11:10:12;;;;;;;4.93;3.80;;;;;;;;;;4933747;29;20103;-75
2022/07/31 11:12:38;;;;;;;7.45;4.10;;;;;;;;;;4933813;29;20036;-76
2022/07/31 11:15:15;;;;;;;4.82;3.30;;;;;;;;;;4933361;29;20035;-76
2022/07/31 11:17:41;;;;;;;4.15;3.22;;;;;;;;;;4933967;29;20067;-75
2022/07/31 11:20:21;;;;;;;6.57;3.47;;;;;;;;;;4933509;29;20342;-76
2022/07/31 11:23:02;;;;;;;4.78;3.40;;;;;;;;;;4934628;29;20040;-76
2022/07/31 11:25:29;;;;;;;7.47;3.75;;;;;;;;;;4952694;29;20380;-76
2022/07/31 11:28:12;;;;;;;3.55;3.22;;;;;;;;;;4952899;29;20062;-77
2022/07/31 11:30:57;;;;;;;3.92;3.50;;;;;;;;;;4952589;29;20035;-75
2022/07/31 11:33:42;;;;;;;5.50;3.90;;;;;;;;;;4953841;29;20032;-76
2022/07/31 11:36:19;;;;;;;4.03;3.47;;;;;;;;;;4951993;29;20440;-76
2022/07/31 11:38:48;;;;;;;6.35;3.17;;;;;;;;;;4953835;28;20031;-75
2022/07/31 11:41:15;;;;;;;6.28;3.22;;;;;;;;;;4954227;28;20031;-75
2022/07/31 11:43:49;;;;;;;4.18;3.30;;;;;;;;;;4952164;29;20032;-76
2022/07/31 11:46:30;;;;;;;4.80;3.72;;;;;;;;;;4953574;29;20035;-76
2022/07/31 11:48:56;;;;;;;5.53;3.30;;;;;;;;;;4952538;28;20122;-74
2022/07/31 11:51:23;;;;;;;4.97;3.25;;;;;;;;;;4952191;29;20027;-76
2022/07/31 11:53:50;;;;;;;4.60;3.45;;;;;;;;;;4952211;29;20034;-77
2022/07/31 11:56:19;;;;;;;4.40;3.65;;;;;;;;;;4953806;28;20030;-78
2022/07/31 11:58:56;;;;;;;3.85;3.30;;;;;;;;;;4952664;29;20035;-76
2022/07/31 12:01:27;;;;;;;6.30;3.78;;;;;;;;;;4952404;28;20031;-77
2022/07/31 12:03:54;;;;;;;7.05;3.35;;;;;;;;;;4953577;28;20494;-77
2022/07/31 12:06:21;;;;;;;4.07;3.13;;;;;;;;;;4952252;28;20046;-78
2022/07/31 12:08:48;;;;;;;5.20;4.10;;;;;;;;;;4968044;28;20440;-77
2022/07/31 12:11:16;;;;;;;5.43;3.22;;;;;;;;;;4952076;29;20030;-75
2022/07/31 12:13:46;;;;;;;4.50;2.67;;;;;;;;;;4954887;29;20277;-76
2022/07/31 12:16:12;;;;;;;3.17;2.88;;;;;;;;;;4955653;29;20031;-76
2022/07/31 12:19:00;;;;;;;3.70;3.30;;;;;;;;;;4969098;28;20127;-76
2022/07/31 12:21:34;;;;;;;7.43;4.53;;;;;;;;;;4971442;29;20059;-76
2022/07/31 12:24:00;;;;;;;3.72;3.20;;;;;;;;;;4957275;28;20016;-76
2022/07/31 12:26:27;;;;;;;3.95;3.28;;;;;;;;;;4935227;29;20467;-76
2022/07/31 12:29:02;;;;;;;4.93;3.20;;;;;;;;;;4934893;29;20090;-76
2022/07/31 12:31:30;;;;;;;4.75;2.97;;;;;;;;;;4934250;29;20028;-77
2022/07/31 12:33:55;;;;;;;7.07;3.22;;;;;;;;;;4933962;29;20032;-77
2022/07/31 12:36:21;;;;;;;3.22;2.88;;;;;;;;;;4935608;29;20432;-74
2022/07/31 12:38:59;;;;;;;4.40;3.10;;;;;;;;;;4933957;29;20032;-76
2022/07/31 12:41:26;;;;;;;4.80;2.97;;;;;;;;;;4934990;29;20051;-76
2022/07/31 12:43:51;;;;;;;6.22;3.03;;;;;;;;;;4933742;29;20028;-76
2022/07/31 12:46:17;;;;;;;5.50;3.05;;;;;;;;;;4934650;29;20389;-76
2022/07/31 12:48:42;;;;;;;10.88;3.03;;;;;;;;;;4933599;29;20027;-75
2022/07/31 12:51:08;;;;;;;6.22;2.70;;;;;;;;;;4937904;29;20484;-75
2022/07/31 12:53:33;;;;;;;4.80;2.85;;;;;;;;;;4937527;29;20476;-75
2022/07/31 12:55:58;;;;;;;6.50;3.15;;;;;;;;;;4938296;29;20034;-76
2022/07/31 12:58:24;;;;;;;4.90;2.92;;;;;;;;;;4938137;29;20067;-76
2022/07/31 13:00:50;;;;;;;3.50;3.00;;;;;;;;;;4938179;29;20028;-77
2022/07/31 13:03:15;;;;;;;4.05;2.58;;;;;;;;;;4917362;29;20083;-77
2022/07/31 13:05:41;;;;;;;3.35;3.00;;;;;;;;;;4932382;29;20032;-76
2022/07/31 13:08:09;;;;;;;3.45;2.78;;;;;;;;;;4933547;29;20035;-77
2022/07/31 13:10:35;;;;;;;3.95;2.65;;;;;;;;;;4932203;29;20051;-76
2022/07/31 13:13:00;;;;;;;4.30;2.30;;;;;;;;;;4933128;29;20050;-77
2022/07/31 13:15:29;;;;;;;3.10;2.58;;;;;;;;;;4933024;29;20024;-77
2022/07/31 13:17:56;;;;;;;4.05;2.78;;;;;;;;;;4932977;29;20102;-76
2022/07/31 13:20:21;;;;;;;3.78;2.78;;;;;;;;;;4933209;29;20441;-77
2022/07/31 13:22:48;;;;;;;3.13;2.83;;;;;;;;;;4933570;29;20043;-77
2022/07/31 13:25:13;;;;;;;3.40;3.10;;;;;;;;;;4952575;29;20035;-77
2022/07/31 13:27:40;;;;;;;6.03;2.72;;;;;;;;;;4951001;29;20082;-76
2022/07/31 13:30:07;;;;;;;5.68;3.03;;;;;;;;;;4951235;29;20039;-76
2022/07/31 13:32:32;;;;;;;3.03;2.42;;;;;;;;;;4950781;29;20027;-77
2022/07/31 13:34:59;;;;;;;4.13;2.40;;;;;;;;;;4951249;29;20186;-76
2022/07/31 13:37:24;;;;;;;3.08;2.55;;;;;;;;;;4955246;28;20035;-77
2022/07/31 13:39:50;;;;;;;6.57;2.90;;;;;;;;;;4958665;29;20069;-76
2022/07/31 13:42:15;;;;;;;3.13;2.55;;;;;;;;;;4957146;28;20035;-77
2022/07/31 13:44:41;;;;;;;3.72;2.90;;;;;;;;;;4958406;28;20031;-78
2022/07/31 13:47:06;;;;;;;5.80;3.38;;;;;;;;;;4973510;28;20019;-77
2022/07/31 13:49:32;;;;;;;5.20;3.30;;;;;;;;;;4956911;29;20563;-76
2022/07/31 13:51:59;;;;;;;2.85;2.65;;;;;;;;;;4958142;28;20115;-77
2022/07/31 13:54:25;;;;;;;4.20;2.90;;;;;;;;;;4956976;28;20464;-78
2022/07/31 13:56:50;;;;;;;3.33;2.80;;;;;;;;;;4958012;28;20502;-76
2022/07/31 13:59:17;;;;;;;11.02;2.60;;;;;;;;;;4956643;28;20031;-77
2022/07/31 14:01:42;;;;;;;4.78;3.40;;;;;;;;;;4973032;28;20118;-75
2022/07/31 14:04:08;;;;;;;3.63;2.60;;;;;;;;;;4956766;28;20131;-76
2022/07/31 14:06:33;;;;;;;5.18;3.20;;;;;;;;;;4957932;29;20364;-77
2022/07/31 14:08:59;;;;;;;7.15;2.67;;;;;;;;;;4956672;28;20058;-77
2022/07/31 14:11:24;;;;;;;3.22;2.92;;;;;;;;;;4956778;29;20035;-76
2022/07/31 14:13:50;;;;;;;6.35;3.70;;;;;;;;;;4956780;28;20023;-76
2022/07/31 14:16:15;;;;;;;4.90;2.97;;;;;;;;;;4956503;28;20030;-76
2022/07/31 14:18:41;;;;;;;4.90;3.17;;;;;;;;;;4956784;29;20027;-77
2022/07/31 14:21:06;;;;;;;6.50;3.55;;;;;;;;;;4972778;28;20484;-77
2022/07/31 14:23:32;;;;;;;10.43;3.20;;;;;;;;;;4950264;28;20039;-77
2022/07/31 14:25:58;;;;;;;7.82;3.20;;;;;;;;;;4937215;29;20369;-75
2022/07/31 14:28:24;;;;;;;5.50;3.15;;;;;;;;;;4938494;29;20057;-76
2022/07/31 14:30:50;;;;;;;9.18;3.00;;;;;;;;;;4939052;29;20062;-77
2022/07/31 14:33:15;;;;;;;8.60;3.72;;;;;;;;;;4938963;29;20052;-77
2022/07/31 14:35:41;;;;;;;4.70;3.25;;;;;;;;;;4938735;29;20031;-78
2022/07/31 14:38:07;;;;;;;4.18;3.45;;;;;;;;;;4939033;29;20020;-77